This is the latest recevied weather packets stored in our database for station/object DL6MM-4. If no packets are shown the sender has not sent any weather packets the latest 10 day(s).
| Time | Temp. | Humidity | Pressure | Rain* | Wind** | Luminosity | Snow |
|---|---|---|---|---|---|---|---|
| 1777580954 | 8.33° C | 75% | 1027.8 hPa | 0 mm | - | - | - |
| 1777580354 | 8.33° C | 75% | 1027.8 hPa | 0 mm | - | - | - |
| 1777579754 | 8.33° C | 76% | 1027.7 hPa | 0 mm | - | - | - |
| 1777579155 | 8.33° C | 75% | 1027.8 hPa | 0 mm | - | - | - |
| 1777578555 | 8.89° C | 72% | 1027.5 hPa | 0 mm | - | - | - |
| 1777577954 | 9.44° C | 70% | 1027.5 hPa | 0 mm | - | - | - |
| 1777577355 | 10.56° C | 67% | 1027.4 hPa | 0 mm | - | - | - |
| 1777576755 | 10.56° C | 66% | 1027.2 hPa | 0 mm | - | - | - |
| 1777576154 | 11.67° C | 62% | 1027.3 hPa | 0 mm | - | - | - |
| 1777575555 | 12.78° C | 57% | 1027.2 hPa | 0 mm | - | - | - |
| 1777574954 | 13.89° C | 53% | 1027.2 hPa | 0 mm | - | - | - |
| 1777574355 | 14.44° C | 50% | 1027 hPa | 0 mm | - | - | - |
| 1777573754 | 15° C | 48% | 1027 hPa | 0 mm | - | - | - |
| 1777573155 | 15.56° C | 47% | 1027 hPa | 0 mm | - | - | - |
| 1777572555 | 15.56° C | 45% | 1026.9 hPa | 0 mm | - | - | - |
| 1777571954 | 16.11° C | 45% | 1026.9 hPa | 0 mm | - | - | - |
| 1777571354 | 16.67° C | 44% | 1026.9 hPa | 0 mm | - | - | - |
| 1777570754 | 16.67° C | 43% | 1026.9 hPa | 0 mm | - | - | - |
| 1777570154 | 17.22° C | 43% | 1026.9 hPa | 0 mm | - | - | - |
| 1777569554 | 17.22° C | 42% | 1026.8 hPa | 0 mm | - | - | - |
| 1777568954 | 17.22° C | 40% | 1026.9 hPa | 0 mm | - | - | - |
| 1777568354 | 17.22° C | 40% | 1026.9 hPa | 0 mm | - | - | - |
| 1777567754 | 17.22° C | 39% | 1026.9 hPa | 0 mm | - | - | - |
| 1777567154 | 17.78° C | 40% | 1027 hPa | 0 mm | - | - | - |
| 1777566554 | 17.78° C | 39% | 1027 hPa | 0 mm | - | - | - |
* Rain latest hour (hover to see other rain measurements)
** Current wind speed in m/s (hover to see current wind gust speed)